createdAt,value
2019-02-05T00:01:34.017Z,14.47
2019-02-05T00:04:09.474Z,16.93
2019-02-05T00:06:43.590Z,18.07
2019-02-05T00:09:17.838Z,16.57
2019-02-05T00:11:51.094Z,16.15
2019-02-05T00:14:24.671Z,15.28
2019-02-05T00:16:58.910Z,14.03
2019-02-05T00:19:32.308Z,15.75
2019-02-05T00:22:07.013Z,15.48
2019-02-05T00:24:40.806Z,15.23
2019-02-05T00:27:15.036Z,15.20
2019-02-05T00:29:48.417Z,16.32
2019-02-05T00:32:23.162Z,15.75
2019-02-05T00:34:57.747Z,17.80
2019-02-05T00:37:31.489Z,17.42
2019-02-05T00:40:05.831Z,17.40
2019-02-05T00:42:39.117Z,17.02
2019-02-05T00:45:13.959Z,19.57
2019-02-05T00:47:49.097Z,18.98
2019-02-05T00:50:23.001Z,20.08
2019-02-05T00:52:56.633Z,20.70
2019-02-05T00:55:31.490Z,20.48
2019-02-05T00:58:06.264Z,19.23
2019-02-05T01:00:39.736Z,19.85
2019-02-05T01:03:14.058Z,18.92
2019-02-05T01:05:48.272Z,19.67
2019-02-05T01:08:21.964Z,18.77
2019-02-05T01:10:55.700Z,16.85
2019-02-05T01:13:29.615Z,17.17
2019-02-05T01:16:03.633Z,16.07
2019-02-05T01:18:37.580Z,15.93
2019-02-05T01:21:11.856Z,16.27
2019-02-05T01:23:45.685Z,15.40
2019-02-05T01:26:29.032Z,16.67
2019-02-05T01:28:54.907Z,15.68
2019-02-05T01:31:28.609Z,14.00
2019-02-05T01:34:02.425Z,14.55
2019-02-05T01:36:36.616Z,14.05
2019-02-05T01:39:11.465Z,12.60
2019-02-05T01:41:45.276Z,12.60
2019-02-05T01:44:19.988Z,12.75
2019-02-05T01:46:53.302Z,13.03
2019-02-05T01:49:27.504Z,12.82
2019-02-05T01:52:02.027Z,13.03
2019-02-05T01:54:35.742Z,13.10
2019-02-05T01:57:09.854Z,14.25
2019-02-05T01:59:43.630Z,13.60
2019-02-05T02:02:17.901Z,13.08
2019-02-05T02:04:51.807Z,13.38
2019-02-05T02:07:25.820Z,14.78
2019-02-05T02:10:00.094Z,14.93
2019-02-05T02:12:34.333Z,13.30
2019-02-05T02:15:08.820Z,13.85
2019-02-05T02:17:43.281Z,13.13
2019-02-05T02:20:18.489Z,13.25
2019-02-05T02:22:52.435Z,12.28
2019-02-05T02:25:25.614Z,12.35
2019-02-05T02:27:58.909Z,12.03
2019-02-05T02:30:36.370Z,11.35
2019-02-05T02:33:09.906Z,11.70
2019-02-05T02:35:43.784Z,12.05
2019-02-05T02:38:16.659Z,13.15
2019-02-05T02:40:50.509Z,12.23
2019-02-05T02:43:24.228Z,13.08
2019-02-05T02:45:58.272Z,12.63
2019-02-05T02:48:33.172Z,11.03
2019-02-05T02:51:07.238Z,12.93
2019-02-05T02:53:41.591Z,12.00
2019-02-05T02:56:15.532Z,13.10
2019-02-05T02:58:49.790Z,11.95
2019-02-05T03:01:23.506Z,12.33
2019-02-05T03:03:57.707Z,11.12
2019-02-05T03:06:31.525Z,12.05
2019-02-05T03:09:07.702Z,12.23
2019-02-05T03:11:42.259Z,10.63
2019-02-05T03:14:15.749Z,11.05
2019-02-05T03:16:49.972Z,12.00
2019-02-05T03:19:23.737Z,12.18
2019-02-05T03:21:57.097Z,12.68
2019-02-05T03:24:30.864Z,12.03
2019-02-05T03:27:16.942Z,11.48
2019-02-05T03:29:41.493Z,12.78
2019-02-05T03:32:16.711Z,13.10
2019-02-05T03:34:50.527Z,11.95
2019-02-05T03:37:24.787Z,13.08
2019-02-05T03:39:58.637Z,12.82
2019-02-05T03:42:31.996Z,12.58
2019-02-05T03:45:06.026Z,15.08
2019-02-05T03:47:39.643Z,16.07
2019-02-05T03:50:13.830Z,18.17
2019-02-05T03:52:57.074Z,17.45
2019-02-05T03:56:13.663Z,15.45
2019-02-05T03:59:49.832Z,15.53
2019-02-05T04:03:18.836Z,13.98
2019-02-05T04:07:04.394Z,15.25
2019-02-05T04:10:56.335Z,14.93
2019-02-05T04:14:24.534Z,15.13
2019-02-05T04:17:46.045Z,15.15
2019-02-05T04:21:08.278Z,15.18
2019-02-05T04:24:28.799Z,16.55
2019-02-05T04:28:07.441Z,16.77
2019-02-05T04:31:25.457Z,18.20
2019-02-05T04:34:48.566Z,20.48
2019-02-05T04:38:28.051Z,19.52
2019-02-05T04:41:29.175Z,21.20
2019-02-05T04:44:37.764Z,23.18
2019-02-05T04:47:46.293Z,21.52
2019-02-05T04:51:08.082Z,25.82
2019-02-05T04:54:44.068Z,27.60
2019-02-05T04:57:58.018Z,25.92
2019-02-05T05:01:17.796Z,25.27
2019-02-05T05:04:14.745Z,27.07
2019-02-05T05:07:48.562Z,30.00
2019-02-05T05:10:21.949Z,29.95
2019-02-05T05:12:55.732Z,29.35
2019-02-05T05:15:29.115Z,27.87
2019-02-05T05:18:03.673Z,27.10
2019-02-05T05:20:37.706Z,23.22
2019-02-05T05:23:11.912Z,22.60
2019-02-05T05:25:46.232Z,26.52
2019-02-05T05:28:20.632Z,26.55
2019-02-05T05:30:54.194Z,29.70
2019-02-05T05:33:28.471Z,29.57
2019-02-05T05:36:02.171Z,25.88
2019-02-05T05:38:36.370Z,28.45
2019-02-05T05:41:10.606Z,22.90
2019-02-05T05:43:44.775Z,19.35
2019-02-05T05:46:18.504Z,17.23
2019-02-05T05:48:52.250Z,15.72
2019-02-05T05:51:25.958Z,16.15
2019-02-05T05:54:00.154Z,15.45
2019-02-05T05:56:33.980Z,15.83
2019-02-05T05:59:08.263Z,15.45
2019-02-05T06:01:41.493Z,17.62
2019-02-05T06:04:15.264Z,26.90
2019-02-05T06:06:50.001Z,26.93
2019-02-05T06:09:23.860Z,31.07
2019-02-05T06:11:57.096Z,37.48
2019-02-05T06:14:30.814Z,38.45
2019-02-05T06:17:04.611Z,36.42
2019-02-05T06:19:39.144Z,36.53
2019-02-05T06:22:12.415Z,33.92
2019-02-05T06:24:46.746Z,36.15
2019-02-05T06:27:20.582Z,34.83
2019-02-05T06:29:54.811Z,38.78
2019-02-05T06:32:28.485Z,35.43
2019-02-05T06:35:02.933Z,32.73
2019-02-05T06:37:36.237Z,36.38
2019-02-05T06:40:10.066Z,34.45
2019-02-05T06:42:44.144Z,33.10
2019-02-05T06:45:17.726Z,31.87
2019-02-05T06:47:50.966Z,34.33
2019-02-05T06:50:25.202Z,34.35
2019-02-05T06:52:59.621Z,36.30
2019-02-05T06:55:34.686Z,41.05
2019-02-05T06:58:07.809Z,37.35
2019-02-05T07:00:41.642Z,42.83
2019-02-05T07:03:15.833Z,44.15
2019-02-05T07:05:49.081Z,46.68
2019-02-05T07:08:23.054Z,49.18
2019-02-05T07:10:57.287Z,53.42
2019-02-05T07:13:31.887Z,52.50
2019-02-05T07:16:05.585Z,50.75
2019-02-05T07:18:40.139Z,49.48
2019-02-05T07:21:14.487Z,53.35
2019-02-05T07:23:48.177Z,49.95
2019-02-05T07:26:21.416Z,51.08
2019-02-05T07:28:58.864Z,51.30
2019-02-05T07:31:30.658Z,52.05
2019-02-05T07:34:05.051Z,48.92
2019-02-05T07:36:39.274Z,46.08
2019-02-05T07:39:14.320Z,46.15
2019-02-05T07:41:48.689Z,46.02
2019-02-05T07:44:22.635Z,43.35
2019-02-05T07:46:56.361Z,37.30
2019-02-05T07:49:30.656Z,39.25
2019-02-05T07:52:04.679Z,42.98
2019-02-05T07:54:38.606Z,44.55
2019-02-05T07:57:12.772Z,46.83
2019-02-05T07:59:47.248Z,45.90
2019-02-05T08:02:21.731Z,47.62
2019-02-05T08:04:55.598Z,55.83
2019-02-05T08:07:29.887Z,60.40
2019-02-05T08:10:03.767Z,61.02
2019-02-05T08:12:38.809Z,51.55
2019-02-05T08:15:17.873Z,47.23
2019-02-05T08:17:52.393Z,41.20
2019-02-05T08:20:27.282Z,44.35
2019-02-05T08:23:01.960Z,43.98
2019-02-05T08:25:37.011Z,47.10
2019-02-05T08:28:10.770Z,48.60
2019-02-05T08:30:48.275Z,47.30
2019-02-05T08:33:22.698Z,47.83
2019-02-05T08:35:57.827Z,42.93
2019-02-05T08:38:32.641Z,49.48
2019-02-05T08:41:06.826Z,46.45
2019-02-05T08:43:41.293Z,44.80
2019-02-05T08:46:16.171Z,42.38
2019-02-05T08:48:50.508Z,39.38
2019-02-05T08:51:24.520Z,41.42
2019-02-05T08:53:59.116Z,44.58
2019-02-05T08:56:32.310Z,38.80
2019-02-05T08:59:05.659Z,41.00
2019-02-05T09:01:39.275Z,38.17
2019-02-05T09:04:14.089Z,37.35
2019-02-05T09:06:47.763Z,36.98
2019-02-05T09:09:21.387Z,37.28
2019-02-05T09:11:55.692Z,37.70
2019-02-05T09:14:29.936Z,37.40
2019-02-05T09:17:03.391Z,38.60
2019-02-05T09:19:37.421Z,36.13
2019-02-05T09:22:10.322Z,36.68
2019-02-05T09:24:43.688Z,37.60
2019-02-05T09:27:19.388Z,35.08
2019-02-05T09:29:52.924Z,34.18
2019-02-05T09:32:34.938Z,31.30
2019-02-05T09:35:03.521Z,31.07
2019-02-05T09:37:38.234Z,29.30
2019-02-05T09:40:16.199Z,27.75
2019-02-05T09:42:50.034Z,27.90
2019-02-05T09:45:27.056Z,28.60
2019-02-05T09:48:02.028Z,25.48
2019-02-05T09:50:44.252Z,29.32
2019-02-05T09:53:12.458Z,25.48
2019-02-05T09:55:46.387Z,28.60
2019-02-05T09:58:21.350Z,31.37
2019-02-05T10:00:56.023Z,30.90
2019-02-05T10:03:30.427Z,27.55
2019-02-05T10:06:04.958Z,27.25
2019-02-05T10:08:39.952Z,27.90
2019-02-05T10:11:14.891Z,28.25
2019-02-05T10:13:50.481Z,25.35
2019-02-05T10:16:26.187Z,23.73
2019-02-05T10:19:01.221Z,25.68
2019-02-05T10:21:38.261Z,25.90
2019-02-05T10:24:12.828Z,24.30
2019-02-05T10:26:47.575Z,23.02
2019-02-05T10:29:22.916Z,23.90
2019-02-05T10:31:57.852Z,25.80
2019-02-05T10:34:34.234Z,26.45
2019-02-05T10:37:10.019Z,25.40
2019-02-05T10:39:43.807Z,25.82
2019-02-05T10:42:18.072Z,29.37
2019-02-05T10:44:52.467Z,33.92
2019-02-05T10:47:26.661Z,30.15
2019-02-05T10:50:00.386Z,27.30
2019-02-05T10:52:35.517Z,26.42
2019-02-05T10:55:11.510Z,27.00
2019-02-05T10:57:46.175Z,27.65
2019-02-05T11:00:28.208Z,28.77
2019-02-05T11:03:04.045Z,28.02
2019-02-05T11:05:39.564Z,30.05
2019-02-05T11:08:13.606Z,29.77
2019-02-05T11:10:47.833Z,27.95
2019-02-05T11:13:21.887Z,26.42
2019-02-05T11:15:56.276Z,26.93
2019-02-05T11:18:32.038Z,27.20
2019-02-05T11:21:06.459Z,28.07
2019-02-05T11:23:41.234Z,27.82
2019-02-05T11:26:15.570Z,26.80
2019-02-05T11:28:49.581Z,26.00
2019-02-05T11:31:23.951Z,28.10
2019-02-05T11:33:59.189Z,31.50
2019-02-05T11:36:32.489Z,27.50
2019-02-05T11:39:14.492Z,29.15
2019-02-05T11:41:49.215Z,28.23
2019-02-05T11:44:23.714Z,28.32
2019-02-05T11:46:57.386Z,24.87
2019-02-05T11:49:31.024Z,29.10
2019-02-05T11:52:05.147Z,30.85
2019-02-05T11:54:38.130Z,27.55
2019-02-05T11:57:11.040Z,28.17
2019-02-05T11:59:44.785Z,30.25
2019-02-05T12:02:17.714Z,28.02
2019-02-05T12:04:51.135Z,22.15
2019-02-05T12:07:24.564Z,26.33
2019-02-05T12:09:57.203Z,23.87
2019-02-05T12:12:29.680Z,23.77
2019-02-05T12:15:03.573Z,22.05
2019-02-05T12:17:39.491Z,24.95
2019-02-05T12:20:14.830Z,24.55
2019-02-05T12:22:48.716Z,23.77
2019-02-05T12:25:21.953Z,23.83
2019-02-05T12:27:54.849Z,22.65
2019-02-05T12:30:44.510Z,22.48
2019-02-05T12:33:10.669Z,22.62
2019-02-05T12:35:45.517Z,22.45
2019-02-05T12:38:19.267Z,22.98
2019-02-05T12:40:53.108Z,24.02
2019-02-05T12:43:28.269Z,24.30
2019-02-05T12:46:02.498Z,24.85
2019-02-05T12:48:36.668Z,22.37
2019-02-05T12:51:10.223Z,23.22
2019-02-05T12:53:44.160Z,25.12
2019-02-05T12:56:17.650Z,25.82
2019-02-05T13:02:21.688Z,28.42
2019-02-05T13:10:18.279Z,30.30
